METAR Data
IDs: Format: Raw Decoded Include TAF

Data at: 1208 UTC 23 Sep 2018

KEKS 231155Z AUTO 00000KT 10SM CLR 06/M00 A3004 RMK AO2
KEKS 231135Z AUTO 00000KT 10SM CLR 06/M00 A3003 RMK AO2
KEKS 231115Z AUTO 00000KT 10SM CLR 07/M00 A3003 RMK AO2
KEKS 231055Z AUTO 14004KT 10SM CLR 07/M00 A3003 RMK AO2
KEKS 231035Z AUTO 15004KT 10SM CLR 07/M00 A3003 RMK AO2
KEKS 231015Z AUTO 00000KT 10SM CLR 07/M00 A3004 RMK AO2
KEKS 230955Z AUTO 00000KT 10SM CLR 06/M00 A3003 RMK AO2
KEKS 230935Z AUTO 00000KT 10SM CLR 07/00 A3002 RMK AO2
KEKS 230915Z AUTO 00000KT 10SM CLR 07/00 A3003 RMK AO2
KEKS 230855Z AUTO 06005KT 10SM CLR 07/M00 A3001 RMK AO2
KEKS 230835Z AUTO 08005KT 10SM CLR 06/M00 A3002 RMK AO2
KEKS 230815Z AUTO 08003KT 10SM CLR 07/M00 A3001 RMK AO2
KEKS 230755Z AUTO 09004KT 10SM CLR 06/M01 A3002 RMK AO2
KEKS 230735Z AUTO 13005KT 10SM CLR 08/M01 A3002 RMK AO2
KEKS 230715Z AUTO 00000KT 10SM CLR 10/M01 A3002 RMK AO2
KEKS 230655Z AUTO 13005KT 10SM CLR 08/M01 A3002 RMK AO2
KEKS 230635Z AUTO 16003KT 10SM CLR 07/M01 A3002 RMK AO2
KEKS 230615Z AUTO 00000KT 10SM CLR 07/M02 A3003 RMK AO2
KEKS 230555Z AUTO 04005KT 10SM CLR 11/M01 A3003 RMK AO2
KEKS 230535Z AUTO 02003KT 10SM CLR 11/M01 A3003 RMK AO2
KEKS 230515Z AUTO VRB03KT 10SM CLR 08/M03 A3003 RMK AO2
KEKS 230455Z AUTO 01003KT 10SM CLR 08/M04 A3002 RMK AO2
KEKS 230435Z AUTO 05005KT 10SM CLR 08/M04 A3002 RMK AO2
KEKS 230415Z AUTO 36009KT 10SM CLR 13/M02 A3002 RMK AO2
KEKS 230355Z AUTO 02008KT 10SM CLR 15/M03 A3001 RMK AO2
KEKS 230335Z AUTO 04006KT 10SM CLR 12/M08 A3001 RMK AO2
KEKS 230315Z AUTO 00000KT 10SM CLR 18/M10 A3000 RMK AO2
KEKS 230255Z AUTO 18005G12KT 10SM CLR 17/M10 A2998 RMK AO2
KEKS 230235Z AUTO 18010KT 10SM CLR 17/M10 A2998 RMK AO2
KEKS 230215Z AUTO 27011G16KT 10SM CLR 17/M10 A2998 RMK AO2
KEKS 230155Z AUTO 16010KT 10SM CLR 19/M10 A2996 RMK AO2
KEKS 230135Z AUTO 17010KT 10SM CLR 20/M10 A2996 RMK AO2
KEKS 230115Z AUTO 17010KT 10SM CLR 21/M10 A2996 RMK AO2
KEKS 230055Z AUTO 17012KT 10SM CLR 22/M10 A2996 RMK AO2
KEKS 230035Z AUTO 18013G18KT 10SM CLR 22/M10 A2996 RMK AO2
KEKS 230015Z AUTO 18014G24KT 10SM FEW120 24/M10 A2997 RMK AO2
KEKS 222355Z AUTO 19020KT 10SM CLR 24/M10 A2997 RMK AO2
KEKS 222335Z AUTO 18017G23KT 10SM CLR 23/M09 A2998 RMK AO2
KEKS 222315Z AUTO 19018G25KT 10SM CLR 23/M10 A2998 RMK AO2
KEKS 222255Z AUTO 19021KT 10SM CLR 23/M09 A2997 RMK AO2
KEKS 222235Z AUTO 19021G27KT 10SM CLR 23/M09 A2997 RMK AO2
KEKS 222215Z AUTO 18020G25KT 10SM CLR 23/M09 A2998 RMK AO2
KEKS 222155Z AUTO 19018G27KT 10SM CLR 24/M10 A2998 RMK AO2
KEKS 222135Z AUTO 17018G28KT 10SM CLR 23/M08 A2998 RMK AO2
KEKS 222115Z AUTO 17023G29KT 10SM CLR 23/M09 A2999 RMK AO2
KEKS 222055Z AUTO 21020G31KT 10SM CLR 24/M09 A3000 RMK AO2
KEKS 222035Z AUTO 19025G30KT 10SM CLR 23/M08 A3001 RMK AO2
KEKS 222015Z AUTO 20018G24KT 10SM CLR 23/M08 A3001 RMK AO2
KEKS 221955Z AUTO 19020G25KT 10SM CLR 23/M08 A3002 RMK AO2
KEKS 221935Z AUTO 19017G24KT 10SM CLR 23/M08 A3002 RMK AO2
KEKS 221915Z AUTO 18019G26KT 10SM CLR 23/M08 A3002 RMK AO2
KEKS 221855Z AUTO 19017G23KT 10SM CLR 23/M08 A3003 RMK AO2
KEKS 221835Z AUTO 21014KT 10SM CLR 22/M08 A3004 RMK AO2
KEKS 221815Z AUTO 19016KT 10SM CLR 22/M08 A3005 RMK AO2
KEKS 221755Z AUTO 19017KT 10SM CLR 22/M08 A3006 RMK AO2
KEKS 221735Z AUTO 19016G21KT 10SM CLR 21/M08 A3006 RMK AO2
KEKS 221715Z AUTO 18014G22KT 10SM CLR 21/M08 A3007 RMK AO2
KEKS 221655Z AUTO 18017KT 10SM CLR 20/M07 A3007 RMK AO2
KEKS 221635Z AUTO 17013G19KT 10SM CLR 19/M06 A3008 RMK AO2
KEKS 221615Z AUTO 17012G20KT 10SM CLR 19/M07 A3008 RMK AO2
KEKS 221555Z AUTO 18015G20KT 10SM CLR 18/M07 A3008 RMK AO2
KEKS 221535Z AUTO 17018KT 10SM CLR 18/M06 A3008 RMK AO2
KEKS 221515Z AUTO 19015G24KT 10SM CLR 17/M06 A3008 RMK AO2
KEKS 221455Z AUTO 20015KT 10SM CLR 15/M05 A3009 RMK AO2
KEKS 221435Z AUTO 19014KT 10SM CLR 15/M06 A3008 RMK AO2
KEKS 221415Z AUTO 19015KT 10SM CLR 12/M06 A3008 RMK AO2
KEKS 221355Z AUTO 20015G21KT 10SM CLR 12/M06 A3009 RMK AO2
KEKS 221335Z AUTO 20013G19KT 10SM CLR 11/M06 A3009 RMK AO2
KEKS 221315Z AUTO 23012KT 10SM CLR 09/M06 A3009 RMK AO2
KEKS 221255Z AUTO 22014KT 10SM CLR 10/M07 A3009 RMK AO2
KEKS 221235Z AUTO 22013KT 10SM CLR 10/M06 A3009 RMK AO2
KEKS 221215Z AUTO 22009G15KT 10SM CLR 10/M07 A3009 RMK AO2
KEKS 221155Z AUTO 21013KT 10SM CLR 09/M06 A3010 RMK AO2
KEKS 221135Z AUTO 20011G17KT 10SM CLR 09/M06 A3010 RMK AO2
KEKS 221115Z AUTO 21014KT 10SM CLR 10/M06 A3010 RMK AO2
KEKS 221055Z AUTO 18013KT 10SM CLR 10/M07 A3010 RMK AO2
KEKS 221035Z AUTO 18014KT 10SM CLR 10/M07 A3011 RMK AO2
KEKS 221015Z AUTO 19013KT 10SM CLR 10/M07 A3011 RMK AO2
KEKS 220955Z AUTO 19012KT 10SM CLR 10/M07 A3011 RMK AO2
KEKS 220935Z AUTO 20011KT 10SM CLR 11/M07 A3011 RMK AO2
KEKS 220915Z AUTO 18012KT 10SM CLR 10/M07 A3011 RMK AO2
KEKS 220855Z AUTO 19012KT 10SM CLR 11/M07 A3012 RMK AO2
KEKS 220835Z AUTO 19010KT 10SM CLR 10/M07 A3012 RMK AO2
KEKS 220815Z AUTO 19011KT 10SM CLR 11/M07 A3012 RMK AO2
KEKS 220755Z AUTO 19011KT 10SM CLR 12/M07 A3012 RMK AO2
KEKS 220735Z AUTO 20011KT 10SM CLR 11/M07 A3012 RMK AO2
KEKS 220715Z AUTO 19012KT 10SM CLR 12/M07 A3012 RMK AO2
KEKS 220655Z AUTO 18010KT 10SM CLR 11/M07 A3012 RMK AO2
KEKS 220635Z AUTO 18013KT 10SM CLR 12/M07 A3012 RMK AO2
KEKS 220615Z AUTO 18012KT 10SM CLR 13/M07 A3011 RMK AO2
KEKS 220555Z AUTO 18011KT 10SM CLR 13/M07 A3011 RMK AO2
KEKS 220535Z AUTO 17013KT 10SM CLR 16/M08 A3012 RMK AO2
KEKS 220515Z AUTO 17011G17KT 10SM CLR 17/M08 A3012 RMK AO2
KEKS 220455Z AUTO 17010KT 10SM CLR 17/M08 A3013 RMK AO2
KEKS 220435Z AUTO 16011KT 10SM CLR 17/M08 A3013 RMK AO2
KEKS 220415Z AUTO 15012KT 10SM CLR 17/M08 A3013 RMK AO2
KEKS 220355Z AUTO 15013KT 10SM CLR 17/M08 A3014 RMK AO2
KEKS 220335Z AUTO 15013KT 10SM CLR 17/M08 A3014 RMK AO2
KEKS 220315Z AUTO 16012KT 10SM CLR 16/M08 A3015 RMK AO2
KEKS 220255Z AUTO 15012G17KT 10SM CLR 17/M07 A3015 RMK AO2
KEKS 220235Z AUTO 15013G18KT 10SM CLR 17/M07 A3015 RMK AO2
KEKS 220215Z AUTO 15015KT 10SM CLR 17/M07 A3014 RMK AO2
KEKS 220155Z AUTO 15014G20KT 10SM CLR 18/M07 A3014 RMK AO2
KEKS 220135Z AUTO 15015KT 10SM CLR 17/M07 A3014 RMK AO2
KEKS 220115Z AUTO 16015G22KT 10SM CLR 18/M07 A3014 RMK AO2
KEKS 220055Z AUTO 16018G24KT 10SM CLR 19/M07 A3013 RMK AO2
KEKS 220035Z AUTO 16015G23KT 10SM CLR 20/M07 A3013 RMK AO2
KEKS 220015Z AUTO 16017G23KT 10SM CLR 21/M07 A3013 RMK AO2